Weather History for Palestine, TX

Change the Weather History Date:

Thursday, September 26, 2013

  Actual Average (KTYR) Record (KTYR)
Temperature  
Mean Temperature 77 °F 73 °F  
Max Temperature 90 °F 84 °F 100 °F (1939)
Min Temperature 64 °F 62 °F 43 °F (1956)
Degree Days  
Heating Degree Days 0 0  
Month to date heating degree days 0  
Since 1 July heating degree days 0  
Cooling Degree Days 12 8  
Month to date cooling degree days 311  
Year to date cooling degree days 2233  
Growing Degree Days 27 (Base 50)    
Moisture  
Dew Point 57 °F    
Average Humidity 50    
Maximum Humidity 80    
Minimum Humidity 32    
Precipitation  
Precipitation 0.00 in 0.11 in 2.32 in (1960)
Month to date precipitation 2.94  
Year to date precipitation 32.20  
Snow  
Snow 0.00 in - - ()
Month to date snowfall  
Since 1 July snowfall  
Since 1 September snowfall  
Snow Depth -    
Sea Level Pressure  
Sea Level Pressure 29.89 in    
Wind  
Wind Speed 4 mph (SE)    
Max Wind Speed 10 mph    
Max Gust Speed 16 mph    
Visibility 10 miles    
Events      
T = Trace of Precipitation, MM = Missing Value Source: NWS Daily Summary

Daily Weather History Graph

Daily Weather History Graph

Search for Another Location

Airport:

Trip Planner

Search our weather history database for the weather conditions in past years. The results will help you decide how hot, cold, wet, or windy it might be!

Date:

Astronomy

Sep. 26, 2013 Rise Set
Actual Time 7:13 AM CDT 7:13 PM CDT
Civil Twilight 6:49 AM CDT 7:38 PM CDT
Nautical Twilight 6:21 AM CDT 8:06 PM CDT
Astronomical Twilight 5:52 AM CDT 8:34 PM CDT
Moon No Moon Rise 1:48 PM CDT (9/26)
Length of Visible Light 12h 48m
Length of Day
12h 00m
Waning Gibbous, 54% of the Moon is Illuminated
Sep 26
Waning Gibbous
Sep 26
Last Quarter
Oct 4
New
Oct 11
First Quarter
Oct 18
Full

Hourly Weather History & Observations

Time (CDT) Temp. Heat Index Dew Point Humidity Pressure Visibility Wind Dir Wind Speed Gust Speed Precip Events Conditions
12:15 AM 72.9 °F - 51.8 °F 47% 29.85 in 10.0 mi ESE 4.6 mph - N/A   Clear
12:35 AM 71.2 °F - 52.9 °F 52% 29.85 in 10.0 mi ESE 3.5 mph - N/A   Clear
12:55 AM 71.6 °F - 53.8 °F 53% 29.84 in 10.0 mi East 3.5 mph - N/A   Clear
1:15 AM 71.8 °F - 53.8 °F 53% 29.84 in 10.0 mi ESE 3.5 mph - N/A   Clear
1:35 AM 71.2 °F - 52.0 °F 51% 29.84 in 10.0 mi East 4.6 mph - N/A   Clear
1:55 AM 72.1 °F - 51.4 °F 48% 29.84 in 10.0 mi East 4.6 mph - N/A   Clear
2:15 AM 71.6 °F - 51.8 °F 50% 29.84 in 10.0 mi East 4.6 mph - N/A   Clear
2:35 AM 71.6 °F - 51.1 °F 48% 29.84 in 10.0 mi ESE 4.6 mph - N/A   Clear
2:55 AM 69.1 °F - 52.3 °F 55% 29.85 in 10.0 mi SSE 5.8 mph - N/A   Clear
3:15 AM 68.4 °F - 52.7 °F 57% 29.85 in 10.0 mi ESE 4.6 mph - N/A   Clear
3:35 AM 70.2 °F - 51.3 °F 51% 29.85 in 10.0 mi ESE 5.8 mph - N/A   Clear
3:55 AM 70.0 °F - 52.7 °F 54% 29.85 in 10.0 mi ESE 4.6 mph - N/A   Clear
4:15 AM 69.6 °F - 53.4 °F 56% 29.85 in 10.0 mi SE 3.5 mph - N/A   Clear
4:35 AM 68.9 °F - 53.8 °F 58% 29.85 in 10.0 mi SE 4.6 mph - N/A   Clear
4:55 AM 68.9 °F - 54.5 °F 60% 29.85 in 10.0 mi SE 3.5 mph - N/A   Clear
5:15 AM 68.4 °F - 55.0 °F 62% 29.85 in 10.0 mi SE 4.6 mph - N/A   Clear
5:35 AM 67.1 °F - 57.0 °F 70% 29.86 in 10.0 mi ESE 3.5 mph - N/A   Clear
5:55 AM 66.2 °F - 57.2 °F 73% 29.86 in 10.0 mi Calm Calm - N/A   Clear
6:15 AM 65.5 °F - 57.4 °F 75% 29.87 in 10.0 mi ESE 3.5 mph - N/A   Clear
6:35 AM 64.6 °F - 57.4 °F 77% 29.87 in 10.0 mi ESE 3.5 mph - N/A   Clear
6:55 AM 64.6 °F - 57.2 °F 77% 29.88 in 10.0 mi ESE 4.6 mph - N/A   Clear
7:15 AM 65.3 °F - 57.4 °F 76% 29.88 in 10.0 mi ESE 3.5 mph - N/A   Clear
7:35 AM 65.1 °F - 57.7 °F 77% 29.89 in 10.0 mi ESE 3.5 mph - N/A   Clear
7:55 AM 64.0 °F - 57.9 °F 80% 29.90 in 10.0 mi Calm Calm - N/A   Clear
8:15 AM 67.3 °F - 59.9 °F 77% 29.90 in 10.0 mi Calm Calm - N/A   Clear
8:35 AM 70.0 °F - 60.8 °F 73% 29.91 in 10.0 mi East 3.5 mph - N/A   Clear
8:55 AM 72.9 °F - 60.4 °F 65% 29.91 in 10.0 mi ESE 4.6 mph - N/A   Clear
9:15 AM 74.7 °F - 60.8 °F 62% 29.92 in 10.0 mi SE 4.6 mph - N/A   Clear
9:35 AM 76.3 °F - 61.2 °F 59% 29.93 in 10.0 mi SE 3.5 mph - N/A   Clear
9:55 AM 77.5 °F - 59.9 °F 54% 29.93 in 10.0 mi South 3.5 mph - N/A   Clear
10:15 AM 80.1 °F 80.8 °F 59.5 °F 49% 29.94 in 10.0 mi South 4.6 mph - N/A   Clear
10:35 AM 81.1 °F 81.2 °F 57.2 °F 44% 29.94 in 10.0 mi South 6.9 mph - N/A   Clear
10:55 AM 82.4 °F 82.0 °F 56.8 °F 42% 29.94 in 10.0 mi South 5.8 mph - N/A   Clear
11:15 AM 83.3 °F 82.8 °F 57.0 °F 41% 29.94 in 10.0 mi South 8.1 mph - N/A   Clear
11:35 AM 84.2 °F 83.5 °F 57.6 °F 40% 29.95 in 10.0 mi SSW 5.8 mph - N/A   Clear
11:55 AM 85.5 °F 84.6 °F 57.7 °F 39% 29.94 in 10.0 mi SSE 6.9 mph - N/A   Clear
12:15 PM 85.5 °F 84.8 °F 58.5 °F 40% 29.94 in 10.0 mi South 4.6 mph - N/A   Clear
12:35 PM 86.9 °F 86.3 °F 58.8 °F 39% 29.94 in 10.0 mi South 3.5 mph - N/A   Clear
12:55 PM 87.4 °F 86.7 °F 58.6 °F 38% 29.93 in 10.0 mi SSW 6.9 mph - N/A   Clear
1:15 PM 89.1 °F 88.2 °F 59.0 °F 36% 29.93 in 10.0 mi South 8.1 mph - N/A   Clear
1:35 PM 89.1 °F 88.2 °F 58.6 °F 36% 29.92 in 10.0 mi South 9.2 mph - N/A   Clear
1:55 PM 89.6 °F 88.4 °F 57.7 °F 34% 29.92 in 10.0 mi ESE 8.1 mph - N/A   Clear
2:15 PM 89.8 °F 88.4 °F 57.4 °F 33% 29.91 in 10.0 mi South 8.1 mph - N/A   Clear
2:35 PM 89.8 °F 88.4 °F 57.4 °F 33% 29.90 in 10.0 mi SSE 5.8 mph - N/A   Clear
2:55 PM 90.0 °F 88.8 °F 57.9 °F 34% 29.89 in 10.0 mi ESE 5.8 mph - N/A   Clear
3:15 PM 90.3 °F 89.3 °F 58.6 °F 34% 29.89 in 10.0 mi South 4.6 mph - N/A   Clear
3:35 PM 90.7 °F 89.8 °F 58.8 °F 34% 29.88 in 10.0 mi SSW 4.6 mph - N/A   Clear
3:55 PM 90.5 °F 89.5 °F 58.8 °F 34% 29.88 in 10.0 mi Calm Calm - N/A   Clear
4:15 PM 90.9 °F 89.7 °F 58.1 °F 33% 29.88 in 10.0 mi SE 10.4 mph 16.1 mph N/A   Clear
4:35 PM 90.9 °F 89.4 °F 57.6 °F 32% 29.87 in 10.0 mi South 5.8 mph - N/A   Clear
4:55 PM 90.7 °F 89.2 °F 57.0 °F 32% 29.87 in 10.0 mi ESE 5.8 mph - N/A   Clear
5:15 PM 90.3 °F 89.0 °F 57.4 °F 33% 29.87 in 10.0 mi SSE 5.8 mph - N/A   Clear
5:35 PM 90.0 °F 88.6 °F 57.4 °F 33% 29.87 in 10.0 mi South 5.8 mph - N/A   Clear
5:55 PM 89.6 °F 88.4 °F 57.9 °F 34% 29.87 in 10.0 mi South 3.5 mph - N/A   Clear
6:15 PM 88.9 °F 87.7 °F 57.7 °F 35% 29.87 in 10.0 mi SE 3.5 mph - N/A   Clear
6:35 PM 87.8 °F 86.7 °F 57.4 °F 36% 29.87 in 10.0 mi SSE 4.6 mph - N/A   Clear
6:55 PM 86.5 °F 85.3 °F 56.8 °F 36% 29.88 in 10.0 mi SE 3.5 mph - N/A   Clear
7:15 PM 84.0 °F 84.0 °F 59.7 °F 44% 29.88 in 10.0 mi SE 3.5 mph - N/A   Clear
7:35 PM 81.7 °F 82.2 °F 60.3 °F 48% 29.88 in 10.0 mi SE 3.5 mph - N/A   Clear
7:55 PM 79.7 °F - 59.7 °F 50% 29.88 in 10.0 mi ESE 3.5 mph - N/A   Clear
8:15 PM 79.7 °F - 58.6 °F 48% 29.88 in 10.0 mi ESE 3.5 mph - N/A   Clear
8:35 PM 76.6 °F - 61.5 °F 59% 29.89 in 10.0 mi ESE 3.5 mph - N/A   Clear
8:55 PM 76.8 °F - 59.5 °F 55% 29.89 in 10.0 mi East 5.8 mph - N/A   Clear
9:15 PM 77.4 °F - 57.2 °F 50% 29.90 in 10.0 mi East 4.6 mph - N/A   Clear
9:35 PM 76.6 °F - 57.0 °F 51% 29.90 in 10.0 mi ESE 4.6 mph - N/A   Clear
9:55 PM 75.6 °F - 57.2 °F 53% 29.90 in 10.0 mi ESE 4.6 mph - N/A   Clear
10:15 PM 76.1 °F - 56.7 °F 51% 29.91 in 10.0 mi ESE 3.5 mph - N/A   Clear
10:35 PM 75.7 °F - 57.0 °F 52% 29.91 in 10.0 mi ESE 3.5 mph - N/A   Clear
10:55 PM 74.8 °F - 57.9 °F 55% 29.91 in 10.0 mi Calm Calm - N/A   Clear
11:15 PM 74.7 °F - 58.1 °F 56% 29.92 in 10.0 mi ESE 3.5 mph - N/A   Clear
11:35 PM 73.4 °F - 59.7 °F 62% 29.92 in 10.0 mi ESE 3.5 mph - N/A   Clear
11:55 PM 73.6 °F - 59.5 °F 61% 29.92 in 10.0 mi SE 3.5 mph - N/A   Clear